Time;durP1;ratioP1;P1;durP2;ratioP2;P2;SDS_P1;SDS_P2;PMS_P1;PMS_P2;Temp;Humidity;BMP_temperature;BMP_pressure;BME280_temperature;BME280_humidity;BME280_pressure;Samples;Min_cycle;Max_cycle;Signal;HPM_P1;HPM_P2
2023/06/03 00:00:14;;;;;;;4.28;2.15;;;;;;;18.29;51.90;93595.44;4970572;28;20065;-73
2023/06/03 00:02:41;;;;;;;12.18;4.53;;;;;;;18.34;51.57;93606.66;4971016;28;20503;-73
2023/06/03 00:05:07;;;;;;;4.00;3.08;;;;;;;18.35;51.83;93615.50;4972173;28;20057;-73
2023/06/03 00:07:33;;;;;;;4.30;2.47;;;;;;;18.33;51.09;93588.94;4964293;28;20030;-73
2023/06/03 00:09:59;;;;;;;2.60;1.88;;;;;;;18.54;51.15;93607.25;4985459;28;20053;-73
2023/06/03 00:12:24;;;;;;;2.92;2.22;;;;;;;18.38;51.40;93591.31;4970601;28;20043;-72
2023/06/03 00:14:50;;;;;;;3.33;2.42;;;;;;;18.19;51.76;93583.38;4965139;28;20109;-73
2023/06/03 00:17:15;;;;;;;2.85;2.30;;;;;;;18.30;52.04;93603.16;4970525;28;20061;-75
2023/06/03 00:19:41;;;;;;;3.13;2.40;;;;;;;18.24;52.57;93601.13;4973495;28;20121;-72
2023/06/03 00:22:07;;;;;;;4.15;3.13;;;;;;;18.23;52.30;93588.84;4976568;28;20028;-73
2023/06/03 00:24:32;;;;;;;3.40;2.75;;;;;;;18.29;52.51;93595.44;4976411;28;20061;-74
2023/06/03 00:26:58;;;;;;;4.07;3.00;;;;;;;18.16;52.10;93572.59;4975109;28;20113;-74
2023/06/03 00:29:25;;;;;;;6.63;2.75;;;;;;;18.30;51.50;93580.84;4990313;28;20038;-74
2023/06/03 00:31:50;;;;;;;3.63;2.60;;;;;;;18.32;51.65;93583.94;4974520;28;20034;-73
2023/06/03 00:34:16;;;;;;;5.15;3.17;;;;;;;18.27;51.41;93565.41;4975401;28;20037;-73
2023/06/03 00:36:42;;;;;;;4.05;2.50;;;;;;;18.28;51.76;93578.53;4977241;28;20038;-73
2023/06/03 00:39:08;;;;;;;3.30;2.65;;;;;;;18.01;51.33;93553.56;4975813;28;20421;-73
2023/06/03 00:41:34;;;;;;;3.58;2.65;;;;;;;18.20;51.34;93589.56;4976138;28;20042;-73
2023/06/03 00:43:59;;;;;;;5.13;2.45;;;;;;;18.14;51.34;93588.34;4973848;28;20483;-73
2023/06/03 00:46:25;;;;;;;4.10;2.70;;;;;;;18.21;50.95;93583.03;4977237;28;20033;-74
2023/06/03 00:48:51;;;;;;;3.38;2.78;;;;;;;18.21;50.79;93588.41;4973874;28;20043;-73
2023/06/03 00:51:17;;;;;;;3.92;2.88;;;;;;;18.18;50.65;93586.47;4972740;28;20065;-74
2023/06/03 00:53:43;;;;;;;8.88;3.25;;;;;;;18.08;51.08;93584.41;4977360;28;20105;-73
2023/06/03 00:56:09;;;;;;;4.30;3.25;;;;;;;17.73;52.19;93582.00;4973040;28;20096;-74
2023/06/03 00:58:34;;;;;;;7.95;3.75;;;;;;;17.76;52.30;93560.50;4976614;28;20033;-73
2023/06/03 01:01:00;;;;;;;6.45;3.30;;;;;;;17.91;52.16;93581.09;4973440;28;20482;-74
2023/06/03 01:03:25;;;;;;;3.72;3.13;;;;;;;17.94;52.43;93580.38;4973089;28;20086;-73
2023/06/03 01:06:01;;;;;;;4.10;3.13;;;;;;;17.90;52.71;93563.41;4974560;28;20141;-74
2023/06/03 01:08:35;;;;;;;4.28;3.38;;;;;;;17.88;52.56;93560.31;4974805;28;20038;-73
2023/06/03 01:11:11;;;;;;;6.30;3.45;;;;;;;17.97;52.47;93566.22;4975933;28;20038;-74
2023/06/03 01:13:59;;;;;;;4.13;2.88;;;;;;;17.96;52.24;93556.59;4984964;28;20520;-73
2023/06/03 01:16:26;;;;;;;5.43;3.10;;;;;;;17.87;52.67;93542.63;4975241;28;20033;-73
2023/06/03 01:18:51;;;;;;;5.15;3.08;;;;;;;17.91;51.84;93554.19;4974228;28;20452;-74
2023/06/03 01:21:17;;;;;;;4.63;3.10;;;;;;;17.79;51.81;93546.38;4974744;28;20042;-74
2023/06/03 01:23:44;;;;;;;3.70;3.05;;;;;;;17.80;51.79;93549.81;4974242;28;20713;-73
2023/06/03 01:26:11;;;;;;;5.25;2.88;;;;;;;17.79;52.32;93550.97;4974239;28;20034;-74
2023/06/03 01:28:37;;;;;;;4.07;3.17;;;;;;;17.84;52.06;93559.50;4988079;28;20536;-73
2023/06/03 01:31:05;;;;;;;5.53;2.97;;;;;;;17.76;52.11;93552.44;4974481;28;20034;-73
2023/06/03 01:33:32;;;;;;;6.30;3.95;;;;;;;17.70;52.27;93558.53;4974116;28;20390;-73
2023/06/03 01:36:01;;;;;;;4.55;3.40;;;;;;;17.58;52.66;93557.59;4973632;28;20038;-73
2023/06/03 01:38:27;;;;;;;3.35;2.92;;;;;;;17.46;52.72;93554.31;4974358;28;20042;-73
2023/06/03 01:40:53;;;;;;;5.40;3.20;;;;;;;17.56;52.82;93575.22;4973759;28;20404;-74
2023/06/03 01:43:19;;;;;;;4.88;4.38;;;;;;;17.54;52.81;93578.28;4976965;28;20051;-73
2023/06/03 01:45:45;;;;;;;4.53;3.50;;;;;;;17.40;53.13;93558.47;4973941;28;20285;-73
2023/06/03 01:48:11;;;;;;;10.68;3.75;;;;;;;17.45;53.30;93566.25;4973926;28;20054;-74
2023/06/03 01:50:43;;;;;;;5.38;4.25;;;;;;;17.51;53.36;93570.16;4973241;28;20081;-73
2023/06/03 01:53:09;;;;;;;6.07;3.75;;;;;;;17.36;53.34;93544.19;4967970;28;20049;-74
2023/06/03 01:55:34;;;;;;;6.60;3.72;;;;;;;17.33;53.90;93563.75;4973640;28;20374;-74
2023/06/03 01:58:00;;;;;;;5.82;4.20;;;;;;;17.38;53.97;93568.81;4969844;28;20026;-73
2023/06/03 02:00:25;;;;;;;4.50;3.90;;;;;;;17.29;54.29;93566.38;4973620;28;20408;-73
2023/06/03 02:02:51;;;;;;;7.10;3.75;;;;;;;17.34;54.35;93576.03;4973192;28;20395;-73
2023/06/03 02:05:16;;;;;;;7.72;4.15;;;;;;;17.28;54.38;93574.78;4973834;28;20493;-74
2023/06/03 02:07:42;;;;;;;9.55;3.90;;;;;;;17.23;54.48;93575.09;4973447;28;20018;-73
2023/06/03 02:10:07;;;;;;;3.50;3.17;;;;;;;17.24;54.77;93587.41;4974055;28;20057;-72
2023/06/03 02:12:32;;;;;;;8.43;4.00;;;;;;;17.12;55.31;93586.41;4972208;28;20030;-72
2023/06/03 02:14:58;;;;;;;4.63;3.63;;;;;;;17.12;55.39;93585.63;4974279;28;20120;-73
2023/06/03 02:17:24;;;;;;;6.13;3.90;;;;;;;17.07;55.51;93581.34;4973751;28;20035;-73
2023/06/03 02:19:50;;;;;;;5.85;3.58;;;;;;;17.10;55.65;93588.72;4972181;28;20088;-73
2023/06/03 02:22:17;;;;;;;4.53;3.60;;;;;;;17.04;55.66;93582.06;4973481;28;20026;-73
2023/06/03 02:24:43;;;;;;;5.47;3.78;;;;;;;17.09;55.35;93584.47;4974838;28;20437;-73
2023/06/03 02:27:09;;;;;;;5.32;3.40;;;;;;;17.00;55.39;93578.56;4972375;28;20358;-74
2023/06/03 02:29:35;;;;;;;6.10;3.85;;;;;;;17.04;55.53;93590.13;4973101;28;20039;-73
2023/06/03 02:32:01;;;;;;;6.40;3.85;;;;;;;16.81;55.95;93577.84;4972835;28;20046;-73
2023/06/03 02:34:27;;;;;;;6.50;4.15;;;;;;;16.82;56.15;93585.50;4992733;28;20203;-74
2023/06/03 02:36:52;;;;;;;4.22;3.75;;;;;;;16.84;56.25;93577.09;4980390;28;20030;-73
2023/06/03 02:39:19;;;;;;;4.30;3.53;;;;;;;16.95;55.86;93588.81;4974428;28;20427;-73
2023/06/03 02:41:46;;;;;;;7.03;4.32;;;;;;;16.82;56.09;93585.50;4974006;28;20066;-72
2023/06/03 02:44:13;;;;;;;7.28;3.85;;;;;;;16.90;56.31;93597.94;4989263;28;20356;-73
2023/06/03 02:46:38;;;;;;;3.75;3.35;;;;;;;16.86;56.12;93591.75;4973340;28;20037;-74
2023/06/03 02:49:05;;;;;;;9.60;4.18;;;;;;;16.94;56.34;93603.38;4972540;28;20528;-73
2023/06/03 02:51:30;;;;;;;5.15;3.90;;;;;;;16.87;56.59;93598.66;4972633;28;20076;-73
2023/06/03 02:53:56;;;;;;;7.28;4.18;;;;;;;16.94;56.97;93609.53;4972648;28;20324;-74
2023/06/03 02:56:22;;;;;;;4.55;3.80;;;;;;;16.95;56.89;93619.16;4974047;28;20038;-73
2023/06/03 02:58:50;;;;;;;4.45;3.67;;;;;;;16.89;57.25;93612.50;4972755;28;20735;-73
2023/06/03 03:01:17;;;;;;;9.18;4.57;;;;;;;16.85;57.15;93614.38;4973285;28;20102;-73
2023/06/03 03:03:43;;;;;;;5.32;3.85;;;;;;;16.81;57.24;93600.09;4973051;28;20060;-74
2023/06/03 03:06:11;;;;;;;5.05;4.57;;;;;;;17.05;57.45;93623.94;4972753;28;20521;-74
2023/06/03 03:08:37;;;;;;;5.22;4.00;;;;;;;16.80;57.51;93590.47;4986905;28;20524;-73
2023/06/03 03:11:02;;;;;;;7.72;3.88;;;;;;;17.10;57.90;93629.00;4972598;28;20278;-73
2023/06/03 03:13:28;;;;;;;4.03;3.63;;;;;;;17.04;57.90;93622.38;4972345;28;20031;-74
2023/06/03 03:15:53;;;;;;;5.82;4.30;;;;;;;17.01;58.21;93620.38;4980320;28;20198;-73
2023/06/03 03:18:18;;;;;;;5.45;4.15;;;;;;;17.04;58.32;93624.28;4971938;28;20397;-73
2023/06/03 03:20:44;;;;;;;5.72;4.03;;;;;;;17.02;58.49;93627.31;4973273;28;20405;-72
2023/06/03 03:23:12;;;;;;;5.18;3.95;;;;;;;17.02;58.91;93638.06;4970222;28;20424;-73
2023/06/03 03:25:40;;;;;;;5.78;4.72;;;;;;;16.89;58.95;93617.88;4972068;28;20424;-73
2023/06/03 03:28:06;;;;;;;4.15;3.40;;;;;;;16.95;58.91;93631.81;4972554;28;20350;-73
2023/06/03 03:30:32;;;;;;;7.20;4.28;;;;;;;17.01;59.30;93644.56;4972638;28;20074;-73
2023/06/03 03:32:59;;;;;;;6.57;4.63;;;;;;;17.01;59.03;93631.13;4969358;28;20035;-73
2023/06/03 03:35:25;;;;;;;7.03;4.35;;;;;;;17.09;59.12;93650.84;4972522;28;20471;-73
2023/06/03 03:37:57;;;;;;;3.80;3.38;;;;;;;17.03;58.84;93650.38;4972329;28;20030;-74
2023/06/03 03:40:23;;;;;;;6.85;4.20;;;;;;;16.91;58.76;93631.75;4972057;28;20057;-73
2023/06/03 03:42:51;;;;;;;4.38;3.50;;;;;;;17.07;58.71;93651.19;4970838;28;20035;-74
2023/06/03 03:45:21;;;;;;;5.28;4.30;;;;;;;17.16;58.89;93651.78;4971414;28;20045;-73
2023/06/03 03:47:50;;;;;;;4.32;3.72;;;;;;;17.14;58.60;93645.22;4971621;28;20042;-73
2023/06/03 03:50:43;;;;;;;4.55;4.15;;;;;;;17.24;58.54;93668.81;4971490;28;20157;-73
2023/06/03 03:53:14;;;;;;;8.48;4.32;;;;;;;17.21;58.53;93650.69;4970713;28;20648;-74
2023/06/03 03:55:48;;;;;;;7.47;4.32;;;;;;;17.22;58.88;93664.91;4975743;28;20201;-73
2023/06/03 03:58:27;;;;;;;8.60;5.60;;;;;;;17.10;59.31;93655.09;4974776;28;20248;-72
2023/06/03 04:01:32;;;;;;;5.57;4.43;;;;;;;17.24;59.15;93670.72;4975411;28;20707;-73
2023/06/03 04:03:58;;;;;;;7.30;5.30;;;;;;;17.30;59.27;93659.31;4974932;28;20196;-74
2023/06/03 04:06:32;;;;;;;9.32;5.07;;;;;;;17.33;58.71;93660.50;4990331;28;20938;-73
2023/06/03 04:08:58;;;;;;;4.95;4.45;;;;;;;17.31;58.92;93668.13;4991933;28;20034;-74
2023/06/03 04:11:27;;;;;;;9.27;4.20;;;;;;;17.28;59.19;93660.78;4976774;28;20061;-73
2023/06/03 04:13:53;;;;;;;5.30;4.80;;;;;;;17.05;59.69;93666.91;4972725;28;20034;-73
2023/06/03 04:16:28;;;;;;;5.40;4.85;;;;;;;17.05;60.47;93666.91;4976547;28;20481;-73
2023/06/03 04:18:54;;;;;;;;;;;;;;;17.12;60.34;93669.72;4974991;28;20146;-72
2023/06/03 04:21:19;;;;;;;7.35;4.85;;;;;;;17.12;59.86;93656.28;4974888;28;19947;-74
2023/06/03 04:23:46;;;;;;;6.93;4.78;;;;;;;17.37;59.87;93666.72;4977025;28;20034;-73
2023/06/03 04:26:15;;;;;;;7.75;5.72;;;;;;;17.38;59.44;93665.56;4966988;28;20206;-74
2023/06/03 04:28:40;;;;;;;10.18;4.80;;;;;;;17.36;58.89;93649.03;4990771;28;20120;-72
2023/06/03 04:31:06;;;;;;;5.05;4.30;;;;;;;17.43;59.65;93657.22;4975844;28;20121;-73
2023/06/03 04:33:32;;;;;;;5.63;4.55;;;;;;;17.50;59.60;93662.72;4974862;28;20034;-73
2023/06/03 04:35:57;;;;;;;6.55;4.43;;;;;;;17.47;59.18;93658.03;4975290;28;20410;-73
2023/06/03 04:38:22;;;;;;;7.30;4.97;;;;;;;17.49;59.26;93667.31;4975557;28;20042;-73
2023/06/03 04:40:48;;;;;;;6.30;4.97;;;;;;;17.51;59.16;93665.03;4991890;28;20386;-73
2023/06/03 04:43:18;;;;;;;4.90;4.38;;;;;;;17.62;58.58;93675.97;4976117;28;20022;-73
2023/06/03 04:45:45;;;;;;;8.27;5.05;;;;;;;17.82;58.12;93674.75;4973474;28;20093;-73
2023/06/03 04:48:13;;;;;;;6.15;5.20;;;;;;;17.76;58.35;93667.31;4973631;28;20034;-73
2023/06/03 04:50:39;;;;;;;6.28;4.65;;;;;;;17.73;58.74;93671.53;4973986;28;20519;-73
2023/06/03 04:53:04;;;;;;;11.23;5.40;;;;;;;17.72;58.33;93669.97;4976349;28;20046;-73
2023/06/03 04:55:31;;;;;;;9.65;4.78;;;;;;;17.85;57.51;93679.38;4973476;28;20635;-74
2023/06/03 04:57:56;;;;;;;8.20;5.57;;;;;;;17.74;58.43;93673.09;4976511;28;20319;-74
2023/06/03 05:00:22;;;;;;;7.07;5.10;;;;;;;17.75;58.82;93679.22;4973650;28;20496;-74
2023/06/03 05:02:56;;;;;;;8.30;5.10;;;;;;;17.73;59.25;93679.59;4975871;28;20038;-73
2023/06/03 05:05:26;;;;;;;8.85;5.30;;;;;;;17.83;58.06;93680.91;4974935;28;20499;-74
2023/06/03 05:07:52;;;;;;;10.25;5.28;;;;;;;17.83;57.81;93687.06;4970549;28;20042;-73
2023/06/03 05:10:18;;;;;;;8.70;5.32;;;;;;;17.71;57.87;93684.53;4975807;28;20031;-73
2023/06/03 05:12:45;;;;;;;7.32;5.97;;;;;;;17.76;57.94;93700.38;4973595;28;20045;-73
2023/06/03 05:15:11;;;;;;;7.35;4.20;;;;;;;17.78;58.15;93695.44;4972707;28;20042;-73
2023/06/03 05:17:38;;;;;;;10.82;5.20;;;;;;;17.80;58.44;93703.13;4988324;28;20045;-72
2023/06/03 05:20:06;;;;;;;7.10;5.47;;;;;;;17.81;58.39;93697.38;4974289;28;20594;-72
2023/06/03 05:22:31;;;;;;;7.18;5.35;;;;;;;17.71;58.50;93695.31;4976340;28;20480;-73
2023/06/03 05:24:57;;;;;;;8.15;4.53;;;;;;;17.56;59.02;93688.16;4973816;28;20028;-73
2023/06/03 05:27:22;;;;;;;6.72;4.70;;;;;;;17.54;59.36;93690.44;4973568;28;20069;-73
2023/06/03 05:29:47;;;;;;;6.65;4.57;;;;;;;17.46;60.20;93702.19;4973833;28;20042;-73
2023/06/03 05:32:13;;;;;;;6.95;4.70;;;;;;;17.65;59.50;93691.34;4973093;28;20034;-74
2023/06/03 05:34:38;;;;;;;7.03;4.80;;;;;;;17.80;59.16;93687.75;4973470;28;20140;-73
2023/06/03 05:37:04;;;;;;;9.07;4.57;;;;;;;17.46;59.52;93696.81;4974419;28;20472;-73
2023/06/03 05:39:29;;;;;;;6.25;5.65;;;;;;;17.61;59.26;93701.28;4974245;28;20055;-74
2023/06/03 05:41:54;;;;;;;7.00;4.72;;;;;;;17.55;60.55;93705.44;4972127;28;20066;-74
2023/06/03 05:44:20;;;;;;;6.30;4.95;;;;;;;17.13;62.37;93700.88;4972453;28;20086;-73
2023/06/03 05:46:45;;;;;;;7.03;4.95;;;;;;;17.16;61.78;93688.59;4973704;28;20809;-73
2023/06/03 05:49:10;;;;;;;8.05;5.00;;;;;;;17.37;60.78;93698.97;4971367;28;20026;-73
2023/06/03 05:51:36;;;;;;;7.95;4.88;;;;;;;17.29;60.35;93699.97;4952685;28;20042;-73
2023/06/03 05:54:01;;;;;;;5.43;4.93;;;;;;;17.22;60.15;93708.69;4967999;28;20137;-74
2023/06/03 05:56:27;;;;;;;6.90;5.28;;;;;;;16.97;60.64;93710.88;4970742;28;20038;-74
2023/06/03 05:58:52;;;;;;;6.95;5.18;;;;;;;17.15;60.68;93711.25;4971321;28;20109;-73
2023/06/03 06:01:17;;;;;;;7.07;4.50;;;;;;;17.75;59.28;93693.44;4972109;28;20034;-73
2023/06/03 06:03:43;;;;;;;4.90;4.30;;;;;;;18.04;57.03;93708.91;4966730;28;20647;-74
2023/06/03 06:06:08;;;;;;;5.78;4.68;;;;;;;18.10;56.72;93705.91;4966685;28;20540;-73
2023/06/03 06:08:33;;;;;;;5.20;4.30;;;;;;;18.02;56.41;93703.13;4968704;28;20030;-73
2023/06/03 06:10:59;;;;;;;4.65;4.05;;;;;;;18.10;56.44;93703.22;4972224;28;20449;-73
2023/06/03 06:13:25;;;;;;;10.82;4.60;;;;;;;18.10;56.34;93692.44;4970293;28;20318;-72
2023/06/03 06:15:58;;;;;;;7.47;4.85;;;;;;;17.77;58.10;93696.56;4970143;28;20080;-74
2023/06/03 06:18:24;;;;;;;5.22;4.65;;;;;;;17.73;58.16;93682.28;4968770;28;20038;-73
2023/06/03 06:20:49;;;;;;;5.68;4.45;;;;;;;18.07;57.18;93690.50;4969406;28;20045;-73
2023/06/03 06:23:15;;;;;;;4.80;4.15;;;;;;;18.13;56.58;93699.81;4969454;28;20045;-73
2023/06/03 06:25:48;;;;;;;5.80;3.92;;;;;;;17.98;57.22;93691.53;4977959;28;20771;-73
2023/06/03 06:28:21;;;;;;;6.30;4.63;;;;;;;18.23;55.23;93693.81;4962228;28;20077;-74
2023/06/03 06:30:46;;;;;;;5.80;4.07;;;;;;;17.96;54.40;93648.06;4971657;28;20043;-73
2023/06/03 06:33:15;;;;;;;6.28;4.32;;;;;;;18.23;56.23;93666.91;4970999;28;20643;-73
2023/06/03 06:35:40;;;;;;;7.00;4.70;;;;;;;18.51;55.57;93688.78;4974380;28;20026;-73
2023/06/03 06:38:06;;;;;;;7.43;4.47;;;;;;;18.17;55.47;93687.97;4973042;28;20594;-72
2023/06/03 06:40:33;;;;;;;6.53;4.55;;;;;;;18.24;56.89;93696.13;4973645;28;20034;-73
2023/06/03 06:42:59;;;;;;;5.80;4.72;;;;;;;18.15;56.71;93697.53;4972803;28;20037;-73
2023/06/03 06:45:27;;;;;;;10.88;4.70;;;;;;;18.07;56.71;93664.38;4969562;28;20026;-75
2023/06/03 06:48:11;;;;;;;9.40;4.68;;;;;;;18.33;55.47;93675.09;4971886;28;20046;-73
2023/06/03 06:50:47;;;;;;;7.88;4.60;;;;;;;18.40;54.14;93704.03;4970788;28;20034;-73
2023/06/03 06:53:20;;;;;;;5.90;4.25;;;;;;;18.44;54.39;93702.16;4971977;28;20034;-74
2023/06/03 06:55:52;;;;;;;6.78;4.53;;;;;;;18.31;55.46;93703.53;4989725;28;20878;-73
2023/06/03 06:58:19;;;;;;;14.70;4.97;;;;;;;18.19;54.28;93709.13;4971658;28;20022;-73
2023/06/03 07:00:45;;;;;;;7.93;4.68;;;;;;;18.28;54.29;93707.75;4972686;28;20026;-73
2023/06/03 07:03:15;;;;;;;10.65;7.50;;;;;;;18.56;53.78;93707.34;4963770;28;20593;-74
2023/06/03 07:05:42;;;;;;;9.25;6.25;;;;;;;18.64;54.17;93711.66;4966250;28;20452;-74
2023/06/03 07:08:07;;;;;;;7.72;5.97;;;;;;;18.51;53.50;93696.09;4985408;28;20042;-74
2023/06/03 07:10:32;;;;;;;15.95;5.78;;;;;;;18.19;53.54;93693.75;4965855;28;20089;-74
2023/06/03 07:12:58;;;;;;;10.23;5.60;;;;;;;18.13;56.09;93714.06;4968748;28;20018;-73
2023/06/03 07:15:24;;;;;;;7.57;5.43;;;;;;;18.47;56.09;93714.91;4969650;28;20038;-73
2023/06/03 07:17:54;;;;;;;8.60;5.65;;;;;;;18.72;55.76;93707.97;4969772;28;20052;-74
2023/06/03 07:20:22;;;;;;;7.95;5.65;;;;;;;18.63;55.90;93712.78;4976058;28;20035;-73
2023/06/03 07:22:48;;;;;;;9.05;5.90;;;;;;;18.56;54.48;93726.19;4970581;28;20588;-73
2023/06/03 07:25:30;;;;;;;6.43;5.65;;;;;;;18.35;56.67;93728.56;4962603;28;20018;-74
2023/06/03 07:27:56;;;;;;;10.20;6.90;;;;;;;18.50;56.43;93713.38;4982990;28;20520;-74
2023/06/03 07:30:22;;;;;;;11.10;5.85;;;;;;;18.48;56.26;93732.59;4982129;28;20115;-75
2023/06/03 07:32:47;;;;;;;10.77;6.20;;;;;;;18.76;56.00;93730.31;4985523;28;20030;-73
2023/06/03 07:35:19;;;;;;;11.05;5.78;;;;;;;19.07;54.35;93736.44;4996334;28;20112;-74
2023/06/03 07:37:45;;;;;;;7.97;5.95;;;;;;;19.18;54.83;93731.94;4972034;28;20476;-72
2023/06/03 07:40:15;;;;;;;11.48;6.03;;;;;;;19.38;53.22;93724.44;4974741;28;20030;-74
2023/06/03 07:42:44;;;;;;;7.10;5.05;;;;;;;19.12;53.42;93744.19;4975654;28;20562;-73
2023/06/03 07:45:12;;;;;;;11.13;6.03;;;;;;;18.94;54.86;93741.31;4975926;28;20038;-74
2023/06/03 07:47:37;;;;;;;11.18;6.72;;;;;;;19.09;54.43;93751.09;4976944;28;20030;-73
2023/06/03 07:50:03;;;;;;;8.55;6.95;;;;;;;19.23;54.22;93751.25;4975777;28;20409;-72
2023/06/03 07:52:35;;;;;;;9.45;5.38;;;;;;;19.24;54.38;93743.94;4968925;28;20041;-73
2023/06/03 07:55:00;;;;;;;7.03;5.15;;;;;;;19.39;53.38;93753.75;4973701;28;20125;-72
2023/06/03 07:57:25;;;;;;;6.07;5.03;;;;;;;19.43;53.30;93754.56;4972418;28;20755;-73
2023/06/03 07:59:54;;;;;;;6.40;4.75;;;;;;;19.65;52.58;93750.94;4969753;28;20042;-73
2023/06/03 08:02:20;;;;;;;6.75;4.10;;;;;;;19.87;52.76;93751.13;4970720;28;20094;-73
2023/06/03 08:04:46;;;;;;;5.68;3.95;;;;;;;19.53;53.03;93755.84;4965612;28;20428;-74
2023/06/03 08:07:12;;;;;;;5.65;3.80;;;;;;;19.68;53.83;93755.59;4964720;28;20038;-74
2023/06/03 08:09:40;;;;;;;5.65;3.53;;;;;;;19.44;54.00;93752.63;4964523;28;20038;-73
2023/06/03 08:12:07;;;;;;;7.93;3.63;;;;;;;19.32;54.38;93769.84;4958560;28;20596;-73
2023/06/03 08:14:38;;;;;;;5.93;3.67;;;;;;;19.14;54.62;93758.88;4962881;28;20161;-73
2023/06/03 08:17:14;;;;;;;5.32;2.80;;;;;;;19.26;54.71;93738.97;4965097;28;20030;-73
2023/06/03 08:19:44;;;;;;;4.55;3.42;;;;;;;19.65;54.41;93740.16;4965950;28;20046;-74
2023/06/03 08:22:39;;;;;;;3.25;2.78;;;;;;;19.91;54.13;93749.22;4957215;28;20038;-73
2023/06/03 08:25:05;;;;;;;4.70;4.05;;;;;;;19.90;53.88;93751.16;4959869;28;20109;-74
2023/06/03 08:27:32;;;;;;;4.55;3.00;;;;;;;20.06;53.24;93750.91;4968397;28;20050;-74
2023/06/03 08:29:57;;;;;;;5.88;2.83;;;;;;;19.98;51.85;93730.41;4970366;28;20034;-74
2023/06/03 08:32:23;;;;;;;5.70;3.25;;;;;;;19.87;52.62;93745.75;4969639;28;20881;-74
2023/06/03 08:34:48;;;;;;;4.75;3.53;;;;;;;19.63;53.72;93737.06;4968237;28;20124;-74
2023/06/03 08:37:14;;;;;;;5.32;3.58;;;;;;;19.91;53.94;93746.53;4983266;28;20030;-73
2023/06/03 08:39:40;;;;;;;2.90;2.03;;;;;;;19.44;50.60;93750.72;4965299;28;20042;-72
2023/06/03 08:42:12;;;;;;;4.15;2.17;;;;;;;19.82;49.95;93754.19;4966661;28;20793;-73
2023/06/03 08:44:49;;;;;;;4.15;3.08;;;;;;;19.72;51.38;93755.63;4980338;28;20679;-73
2023/06/03 08:47:23;;;;;;;6.55;3.03;;;;;;;19.72;53.16;93761.03;4975795;28;20626;-73
2023/06/03 08:50:03;;;;;;;5.57;2.43;;;;;;;19.91;53.13;93762.72;4965014;28;20030;-74
2023/06/03 08:52:33;;;;;;;2.97;2.20;;;;;;;19.72;49.04;93756.41;4980332;28;20092;-73
2023/06/03 08:55:00;;;;;;;5.68;2.88;;;;;;;19.61;51.92;93758.22;4965097;28;21002;-73
2023/06/03 08:57:33;;;;;;;4.65;3.08;;;;;;;19.61;52.61;93749.34;4963139;28;20523;-72
2023/06/03 08:59:59;;;;;;;4.75;2.72;;;;;;;19.84;52.17;93747.28;4964020;28;20034;-74
2023/06/03 09:02:24;;;;;;;7.50;3.35;;;;;;;20.05;51.95;93747.44;4967127;28;20026;-74
2023/06/03 09:04:52;;;;;;;8.70;2.92;;;;;;;20.25;51.94;93761.50;4966053;28;20144;-73
2023/06/03 09:07:19;;;;;;;3.67;2.47;;;;;;;20.02;49.87;93752.81;4963766;28;20652;-74
2023/06/03 09:09:49;;;;;;;4.95;2.45;;;;;;;20.01;50.52;93752.03;4965410;28;20034;-73
2023/06/03 09:12:15;;;;;;;2.55;1.73;;;;;;;20.14;48.95;93750.56;4979375;28;20153;-77
2023/06/03 09:14:43;;;;;;;2.92;2.38;;;;;;;20.37;47.31;93755.03;4965434;28;20042;-72
2023/06/03 09:17:09;;;;;;;4.35;2.25;;;;;;;20.42;48.54;93739.25;4962182;28;20468;-73
2023/06/03 09:19:35;;;;;;;2.42;2.20;;;;;;;20.39;49.08;93747.31;4965373;28;20443;-73
2023/06/03 09:22:01;;;;;;;3.17;2.17;;;;;;;20.34;48.77;93726.81;4963369;28;20054;-73
2023/06/03 09:24:27;;;;;;;3.22;1.80;;;;;;;20.42;48.62;93738.47;4964057;28;20046;-73
2023/06/03 09:26:53;;;;;;;5.07;1.80;;;;;;;20.44;48.91;93731.50;4959551;28;20460;-74
2023/06/03 09:29:20;;;;;;;4.72;2.28;;;;;;;20.49;48.32;93716.88;4976667;28;20085;-72
2023/06/03 09:31:47;;;;;;;2.42;2.22;;;;;;;20.64;47.97;93729.31;4966264;28;20041;-73
2023/06/03 09:34:15;;;;;;;3.50;2.40;;;;;;;20.64;47.96;93736.63;4972026;28;20588;-74
2023/06/03 09:36:45;;;;;;;3.38;2.47;;;;;;;20.81;48.37;93731.34;4976778;28;20062;-74
2023/06/03 09:39:12;;;;;;;3.22;2.78;;;;;;;20.41;47.51;93737.69;4972123;28;20161;-72
2023/06/03 09:41:37;;;;;;;4.35;2.22;;;;;;;20.58;48.77;93731.59;4976760;28;20037;-73
2023/06/03 09:44:06;;;;;;;3.13;2.47;;;;;;;20.51;48.08;93731.56;4975074;28;20035;-73
2023/06/03 09:46:32;;;;;;;2.47;1.90;;;;;;;20.69;46.84;93728.19;4976183;28;20050;-73
2023/06/03 09:49:16;;;;;;;2.53;2.33;;;;;;;20.94;46.17;93726.38;4974071;28;20046;-73
2023/06/03 09:51:47;;;;;;;2.78;1.88;;;;;;;20.88;45.28;93727.91;4983900;28;20077;-74
2023/06/03 09:54:13;;;;;;;4.60;2.13;;;;;;;20.87;46.22;93723.69;4974542;28;20760;-73
2023/06/03 09:56:39;;;;;;;4.45;2.58;;;;;;;20.48;46.53;93723.47;4973760;28;20092;-74
2023/06/03 09:59:17;;;;;;;2.20;1.98;;;;;;;20.32;47.26;93729.13;4973157;28;20035;-73
2023/06/03 10:01:45;;;;;;;2.42;1.83;;;;;;;20.39;45.95;93718.38;4974800;28;20092;-72
2023/06/03 10:04:11;;;;;;;3.35;2.15;;;;;;;20.47;46.15;93725.38;4972625;28;20078;-72
2023/06/03 10:06:36;;;;;;;2.45;2.13;;;;;;;20.56;46.21;93723.09;4973220;28;20113;-72
2023/06/03 10:09:19;;;;;;;4.03;2.65;;;;;;;20.74;45.44;93711.59;4973731;28;20404;-72
2023/06/03 10:11:46;;;;;;;2.67;1.95;;;;;;;20.83;47.28;93703.91;4974286;28;20660;-72
2023/06/03 10:14:11;;;;;;;2.92;2.15;;;;;;;21.11;45.56;93720.28;4972765;28;20033;-73
2023/06/03 10:16:36;;;;;;;2.92;2.17;;;;;;;21.07;45.53;93710.63;4975389;28;20041;-72
2023/06/03 10:19:03;;;;;;;2.63;1.95;;;;;;;21.49;45.84;93712.66;4972288;28;20042;-73
2023/06/03 10:21:30;;;;;;;3.08;2.40;;;;;;;21.42;45.88;93697.94;4967265;28;20929;-74
2023/06/03 10:24:01;;;;;;;6.07;2.15;;;;;;;21.22;44.50;93682.44;4971785;28;20065;-72
2023/06/03 10:26:29;;;;;;;4.80;1.67;;;;;;;21.39;45.05;93709.53;4971274;28;20163;-72
2023/06/03 10:28:55;;;;;;;9.20;1.55;;;;;;;21.37;42.47;93711.06;4971319;28;20089;-71
2023/06/03 10:31:22;;;;;;;2.05;1.30;;;;;;;21.30;41.70;93716.47;4973186;28;20038;-73
2023/06/03 10:33:48;;;;;;;6.75;2.45;;;;;;;21.23;43.64;93689.41;4971500;28;20030;-74
2023/06/03 10:36:16;;;;;;;4.18;2.22;;;;;;;21.13;44.25;93723.38;4963104;28;20039;-72
2023/06/03 10:38:41;;;;;;;2.30;1.95;;;;;;;21.54;44.02;93709.56;4971383;28;20579;-73
2023/06/03 10:41:12;;;;;;;2.80;1.90;;;;;;;21.31;44.54;93709.91;4971933;28;20026;-75
2023/06/03 10:43:39;;;;;;;2.95;2.22;;;;;;;21.43;46.26;93706.84;4964149;28;20026;-72
2023/06/03 10:46:05;;;;;;;2.70;2.00;;;;;;;21.11;44.18;93712.19;4964461;28;20030;-73
2023/06/03 10:48:33;;;;;;;3.47;1.83;;;;;;;20.72;44.33;93709.28;4972467;28;20061;-72
2023/06/03 10:51:37;;;;;;;3.15;1.92;;;;;;;20.86;43.84;93708.56;4972488;28;20614;-73
2023/06/03 10:54:40;;;;;;;2.50;1.63;;;;;;;21.51;43.26;93710.34;4971728;28;20042;-71
2023/06/03 10:57:09;;;;;;;1.70;1.42;;;;;;;21.62;42.64;93700.31;4971769;28;20038;-73
2023/06/03 10:59:43;;;;;;;4.82;1.30;;;;;;;21.62;40.64;93705.72;4970476;28;20041;-73
2023/06/03 11:02:09;;;;;;;1.30;1.20;;;;;;;21.99;40.00;93695.31;4970333;28;20022;-73
2023/06/03 11:04:37;;;;;;;2.50;1.33;;;;;;;21.95;39.68;93699.19;4969722;28;20033;-73
2023/06/03 11:07:04;;;;;;;1.60;1.27;;;;;;;21.70;39.90;93701.88;4970580;28;20038;-73
2023/06/03 11:09:38;;;;;;;1.33;1.23;;;;;;;22.03;38.40;93682.53;4972110;28;20031;-74
2023/06/03 11:12:13;;;;;;;4.07;1.55;;;;;;;22.22;38.67;93695.69;4970057;28;20049;-74
2023/06/03 11:14:48;;;;;;;1.90;1.52;;;;;;;22.20;38.54;93694.50;4964285;28;20167;-75
2023/06/03 11:17:15;;;;;;;3.15;1.50;;;;;;;22.17;39.83;93695.28;4969425;28;20061;-72
2023/06/03 11:19:44;;;;;;;1.75;1.38;;;;;;;22.30;39.16;93696.44;4973049;28;20026;-73
2023/06/03 11:22:11;;;;;;;4.43;1.73;;;;;;;21.93;39.86;93686.03;4975127;28;20042;-73
2023/06/03 11:24:42;;;;;;;2.05;1.50;;;;;;;22.02;39.20;93696.47;4971455;28;20118;-73
2023/06/03 11:27:12;;;;;;;1.42;1.33;;;;;;;21.94;40.63;93700.34;4970189;28;20051;-72
2023/06/03 11:29:51;;;;;;;2.13;1.48;;;;;;;22.10;40.56;93698.75;4973727;28;20676;-73
2023/06/03 11:32:22;;;;;;;2.08;1.60;;;;;;;22.30;41.99;93696.44;4980165;28;20019;-73
2023/06/03 11:34:49;;;;;;;2.85;1.70;;;;;;;22.56;40.47;93695.22;4981017;28;20018;-72
2023/06/03 11:37:17;;;;;;;4.53;1.90;;;;;;;22.40;40.10;93675.91;4962521;28;20047;-73